createdAt,value
2018-03-04T00:00:03.612Z,0.17
2018-03-04T00:02:31.873Z,0.01
2018-03-04T00:05:00.159Z,0.20
2018-03-04T00:07:28.411Z,0.27
2018-03-04T00:09:56.671Z,0.33
2018-03-04T00:12:24.952Z,0.26
2018-03-04T00:14:53.224Z,0.31
2018-03-04T00:17:21.509Z,0.43
2018-03-04T00:19:49.751Z,0.40
2018-03-04T00:22:18.772Z,0.09
2018-03-04T00:24:47.048Z,-0.04
2018-03-04T00:27:15.314Z,-0.21
2018-03-04T00:29:44.416Z,-0.10
2018-03-04T00:32:14.344Z,0.12
2018-03-04T00:34:42.596Z,0.19
2018-03-04T00:37:11.633Z,0.23
2018-03-04T00:39:39.901Z,0.32
2018-03-04T00:42:08.177Z,0.45
2018-03-04T00:44:36.433Z,0.52
2018-03-04T00:47:04.697Z,0.54
2018-03-04T00:49:32.972Z,0.46
2018-03-04T00:52:01.233Z,0.31
2018-03-04T00:54:30.256Z,-0.20
2018-03-04T00:56:58.540Z,0.04
2018-03-04T00:59:26.808Z,-0.17
2018-03-04T01:01:55.091Z,0.09
2018-03-04T01:04:23.371Z,-0.45
2018-03-04T01:06:51.900Z,-0.27
2018-03-04T01:09:20.164Z,-0.05
2018-03-04T01:11:48.440Z,0.18
2018-03-04T01:14:16.700Z,0.26
2018-03-04T01:16:45.028Z,0.42
2018-03-04T01:19:14.053Z,0.53
2018-03-04T01:21:42.325Z,0.58
2018-03-04T01:24:10.593Z,0.62
2018-03-04T01:26:38.848Z,0.69
2018-03-04T01:29:07.900Z,0.78
2018-03-04T01:31:36.162Z,0.80
2018-03-04T01:34:04.448Z,0.63
2018-03-04T01:36:32.704Z,0.69
2018-03-04T01:39:00.980Z,0.45
2018-03-04T01:41:29.256Z,0.46
2018-03-04T01:43:57.519Z,0.23
2018-03-04T01:46:25.780Z,0.49
2018-03-04T01:48:54.065Z,0.56
2018-03-04T01:51:22.328Z,0.60
2018-03-04T01:53:51.352Z,0.72
2018-03-04T01:56:19.631Z,0.60
2018-03-04T01:58:47.902Z,0.47
2018-03-04T02:01:16.168Z,0.48
2018-03-04T02:03:44.446Z,0.61
2018-03-04T02:06:12.692Z,0.45
2018-03-04T02:08:41.839Z,0.42
2018-03-04T02:11:10.089Z,0.57
2018-03-04T02:13:38.360Z,0.59
2018-03-04T02:16:06.946Z,0.35
2018-03-04T02:18:35.216Z,0.25
2018-03-04T02:21:03.491Z,0.36
2018-03-04T02:23:31.766Z,0.51
2018-03-04T02:26:00.021Z,0.54
2018-03-04T02:28:29.062Z,0.60
2018-03-04T02:30:57.314Z,0.65
2018-03-04T02:33:25.602Z,0.68
2018-03-04T02:35:53.889Z,0.75
2018-03-04T02:38:22.144Z,0.71
2018-03-04T02:40:50.405Z,0.76
2018-03-04T02:43:18.693Z,0.76
2018-03-04T02:45:47.012Z,0.81
2018-03-04T02:48:15.279Z,0.79
2018-03-04T02:50:43.565Z,0.84
2018-03-04T02:53:11.831Z,0.75
2018-03-04T02:55:40.081Z,0.80
2018-03-04T02:58:08.373Z,0.82
2018-03-04T03:00:36.645Z,0.75
2018-03-04T03:03:04.925Z,0.78
2018-03-04T03:05:33.217Z,0.82
2018-03-04T03:08:01.480Z,0.79
2018-03-04T03:10:29.768Z,0.47
2018-03-04T03:12:58.029Z,-0.02
2018-03-04T03:15:26.289Z,0.11
2018-03-04T03:17:54.584Z,0.32
2018-03-04T03:20:22.836Z,0.52
2018-03-04T03:22:51.116Z,0.60
2018-03-04T03:25:19.401Z,0.49
2018-03-04T03:27:47.663Z,0.62
2018-03-04T03:30:15.916Z,0.69
2018-03-04T03:32:44.959Z,0.65
2018-03-04T03:35:13.216Z,0.68
2018-03-04T03:37:41.485Z,0.26
2018-03-04T03:40:09.772Z,0.26
2018-03-04T03:42:38.027Z,0.31
2018-03-04T03:45:06.288Z,0.34
2018-03-04T03:47:35.360Z,0.55
2018-03-04T03:50:03.632Z,0.42
2018-03-04T03:52:31.904Z,0.43
2018-03-04T03:55:00.190Z,0.53
2018-03-04T03:57:28.522Z,0.58
2018-03-04T03:59:56.772Z,0.54
2018-03-04T04:02:25.822Z,0.32
2018-03-04T04:04:54.233Z,0.34
2018-03-04T04:07:23.261Z,0.01
2018-03-04T04:09:51.536Z,0.12
2018-03-04T04:12:19.814Z,-0.04
2018-03-04T04:14:48.072Z,-0.11
2018-03-04T04:17:16.359Z,-0.06
2018-03-04T04:19:44.699Z,-0.02
2018-03-04T04:22:13.032Z,-0.01
2018-03-04T04:24:41.305Z,0.19
2018-03-04T04:27:09.552Z,0.17
2018-03-04T04:29:38.576Z,0.21
2018-03-04T04:32:06.861Z,0.31
2018-03-04T04:34:35.226Z,0.45
2018-03-04T04:37:03.489Z,0.21
2018-03-04T04:39:31.766Z,0.18
2018-03-04T04:42:00.037Z,0.39
2018-03-04T04:44:28.297Z,0.54
2018-03-04T04:46:57.329Z,0.28
2018-03-04T04:49:25.592Z,0.26
2018-03-04T04:51:53.869Z,0.35
2018-03-04T04:54:22.132Z,0.39
2018-03-04T04:56:50.420Z,0.53
2018-03-04T04:59:18.696Z,0.63
2018-03-04T05:01:47.000Z,0.53
2018-03-04T05:04:15.346Z,0.26
2018-03-04T05:06:43.634Z,-0.02
2018-03-04T05:09:11.891Z,-0.04
2018-03-04T05:11:40.176Z,-0.22
2018-03-04T05:14:08.484Z,-0.53
2018-03-04T05:16:36.740Z,-0.23
2018-03-04T05:19:05.016Z,0.04
2018-03-04T05:21:33.293Z,-0.02
2018-03-04T05:24:01.560Z,-0.13
2018-03-04T05:26:29.835Z,-0.24
2018-03-04T05:28:58.105Z,-0.20
2018-03-04T05:31:26.388Z,0.03
2018-03-04T05:33:54.673Z,0.29
2018-03-04T05:36:22.928Z,0.01
2018-03-04T05:38:51.203Z,-0.01
2018-03-04T05:41:19.503Z,0.17
2018-03-04T05:43:47.768Z,0.39
2018-03-04T05:46:16.041Z,0.55
2018-03-04T05:48:44.295Z,0.55
2018-03-04T05:51:13.322Z,0.64
2018-03-04T05:53:41.607Z,0.43
2018-03-04T05:56:09.881Z,0.63
2018-03-04T05:58:38.131Z,0.53
2018-03-04T06:01:06.468Z,0.29
2018-03-04T06:03:34.706Z,-0.01
2018-03-04T06:06:03.020Z,0.15
2018-03-04T06:08:31.400Z,0.12
2018-03-04T06:11:01.267Z,-0.01
2018-03-04T06:13:29.528Z,-0.05
2018-03-04T06:15:57.811Z,-0.06
2018-03-04T06:18:26.081Z,-0.16
2018-03-04T06:20:54.343Z,0.00
2018-03-04T06:23:23.411Z,-0.01
2018-03-04T06:25:51.684Z,-0.17
2018-03-04T06:28:19.962Z,-0.03
2018-03-04T06:30:48.214Z,0.00
2018-03-04T06:33:16.504Z,0.19
2018-03-04T06:35:44.765Z,0.30
2018-03-04T06:38:13.038Z,0.41
2018-03-04T06:40:41.300Z,0.35
2018-03-04T06:43:09.564Z,0.55
2018-03-04T06:45:37.845Z,0.69
2018-03-04T06:48:06.107Z,0.78
2018-03-04T06:50:34.372Z,0.77
2018-03-04T06:53:02.640Z,0.62
2018-03-04T06:55:31.687Z,0.80
2018-03-04T06:58:00.014Z,0.80
2018-03-04T07:00:28.268Z,0.47
2018-03-04T07:02:56.534Z,0.73
2018-03-04T07:05:24.797Z,0.55
2018-03-04T07:07:53.091Z,0.51
2018-03-04T07:10:21.365Z,0.39
2018-03-04T07:12:49.643Z,0.21
2018-03-04T07:15:17.939Z,0.10
2018-03-04T07:17:46.960Z,0.05
2018-03-04T07:20:15.236Z,0.13
2018-03-04T07:22:43.489Z,0.45
2018-03-04T07:25:12.516Z,0.66
2018-03-04T07:27:40.829Z,0.86
2018-03-04T07:30:09.079Z,0.68
2018-03-04T07:32:37.343Z,0.87
2018-03-04T07:35:05.669Z,0.54
2018-03-04T07:37:33.902Z,0.66
2018-03-04T07:40:02.209Z,0.59
2018-03-04T07:42:30.485Z,0.63
2018-03-04T07:44:58.749Z,0.78
2018-03-04T07:47:27.037Z,0.79
2018-03-04T07:49:55.288Z,0.87
2018-03-04T07:52:23.615Z,0.55
2018-03-04T07:54:51.841Z,0.78
2018-03-04T07:57:21.450Z,1.05
2018-03-04T07:59:49.724Z,1.26
2018-03-04T08:02:17.996Z,1.19
2018-03-04T08:04:46.265Z,1.40
2018-03-04T08:07:14.529Z,1.55
2018-03-04T08:09:42.782Z,1.39
2018-03-04T08:12:11.836Z,1.61
2018-03-04T08:14:40.093Z,1.27
2018-03-04T08:17:08.375Z,1.27
2018-03-04T08:19:36.649Z,1.07
2018-03-04T08:22:04.926Z,1.06
2018-03-04T08:24:39.710Z,1.24
2018-03-04T08:27:26.544Z,1.38
2018-03-04T08:29:54.815Z,1.13
2018-03-04T08:32:23.080Z,1.42
2018-03-04T08:34:52.129Z,1.45
2018-03-04T08:37:21.396Z,1.55
2018-03-04T08:39:49.659Z,1.73
2018-03-04T08:42:17.952Z,1.84
2018-03-04T08:44:46.236Z,2.09
2018-03-04T08:47:14.500Z,1.89
2018-03-04T08:49:42.773Z,2.05
2018-03-04T08:52:11.045Z,1.78
2018-03-04T08:54:39.306Z,1.88
2018-03-04T08:57:08.351Z,2.13
2018-03-04T08:59:36.643Z,2.45
2018-03-04T09:02:05.685Z,2.57
2018-03-04T09:04:33.968Z,2.44
2018-03-04T09:07:02.247Z,2.58
2018-03-04T09:09:30.528Z,2.09
2018-03-04T09:11:58.807Z,2.11
2018-03-04T09:14:27.088Z,2.36
2018-03-04T09:16:56.064Z,2.18
2018-03-04T09:19:24.343Z,2.11
2018-03-04T09:21:52.604Z,2.03
2018-03-04T09:24:20.879Z,2.33
2018-03-04T09:26:49.172Z,2.11
2018-03-04T09:29:17.432Z,2.41
2018-03-04T09:31:45.699Z,2.55
2018-03-04T09:34:13.988Z,2.66
2018-03-04T09:36:42.254Z,1.91
2018-03-04T09:39:10.520Z,2.36
2018-03-04T09:41:39.567Z,2.21
2018-03-04T09:44:07.824Z,2.32
2018-03-04T09:46:36.097Z,2.48
2018-03-04T09:49:04.732Z,2.65
2018-03-04T09:51:33.016Z,2.98
2018-03-04T09:54:02.076Z,3.25
2018-03-04T09:56:30.368Z,3.24
2018-03-04T09:58:59.415Z,3.07
2018-03-04T10:01:27.680Z,3.16
2018-03-04T10:03:55.987Z,3.35
2018-03-04T10:06:24.296Z,3.20
2018-03-04T10:08:52.625Z,2.96
2018-03-04T10:11:20.922Z,3.12
2018-03-04T10:13:49.188Z,2.99
2018-03-04T10:16:17.561Z,3.01
2018-03-04T10:18:45.844Z,2.88
2018-03-04T10:21:14.096Z,2.73
2018-03-04T10:23:42.377Z,2.90
2018-03-04T10:26:10.697Z,3.04
2018-03-04T10:28:38.995Z,2.94
2018-03-04T10:31:08.106Z,2.87
2018-03-04T10:33:37.418Z,3.16
2018-03-04T10:36:07.118Z,3.38
2018-03-04T10:38:36.993Z,3.53
2018-03-04T10:41:06.493Z,3.42
2018-03-04T10:43:35.434Z,3.79
2018-03-04T10:46:03.986Z,3.85
2018-03-04T10:48:33.122Z,3.55
2018-03-04T10:51:01.529Z,3.69
2018-03-04T10:53:30.297Z,3.95
2018-03-04T10:56:00.050Z,3.91
2018-03-04T10:58:29.697Z,3.96
2018-03-04T11:04:11.468Z,4.43
2018-03-04T11:06:41.318Z,4.11
2018-03-04T11:09:11.133Z,4.01
2018-03-04T11:11:40.196Z,4.31
2018-03-04T11:14:10.051Z,4.22
2018-03-04T11:16:40.251Z,4.41
2018-03-04T11:19:10.306Z,4.43
2018-03-04T11:21:40.188Z,4.22
2018-03-04T11:24:10.154Z,3.98
2018-03-04T11:26:39.877Z,4.32
2018-03-04T11:29:09.858Z,4.30
2018-03-04T11:31:39.638Z,4.42
2018-03-04T11:34:10.419Z,4.48
2018-03-04T11:36:40.245Z,4.46
2018-03-04T11:39:10.319Z,4.48
2018-03-04T11:41:40.969Z,4.77
2018-03-04T11:44:11.666Z,4.81
2018-03-04T11:46:41.518Z,5.04
2018-03-04T11:49:11.462Z,5.23
2018-03-04T11:51:41.336Z,5.30
2018-03-04T11:54:12.203Z,5.49
2018-03-04T11:56:41.877Z,5.36
2018-03-04T11:59:13.108Z,4.69
2018-03-04T12:01:42.854Z,4.73
2018-03-04T12:04:12.663Z,4.71
2018-03-04T12:06:42.310Z,4.66
2018-03-04T12:09:12.310Z,4.59
2018-03-04T12:11:42.252Z,5.21
2018-03-04T12:14:12.203Z,4.81
2018-03-04T12:16:42.701Z,4.69
2018-03-04T12:19:12.691Z,4.89
2018-03-04T12:21:42.491Z,4.90
2018-03-04T12:24:12.431Z,5.11
2018-03-04T12:26:42.162Z,5.10
2018-03-04T12:29:12.090Z,5.28
2018-03-04T12:31:42.851Z,5.26
2018-03-04T12:34:12.960Z,5.07
2018-03-04T12:36:43.034Z,5.10
2018-03-04T12:39:12.982Z,5.21
2018-03-04T12:41:42.752Z,5.08
2018-03-04T12:44:12.618Z,5.01
2018-03-04T12:46:42.348Z,5.16
2018-03-04T12:49:12.438Z,5.41
2018-03-04T12:51:43.235Z,5.50
2018-03-04T12:54:13.368Z,5.53
2018-03-04T12:56:43.336Z,5.70
2018-03-04T12:59:13.496Z,5.39
2018-03-04T13:01:43.370Z,5.74
2018-03-04T13:04:13.416Z,5.46
2018-03-04T13:06:43.211Z,5.68
2018-03-04T13:09:13.292Z,5.52
2018-03-04T13:11:44.206Z,5.58
2018-03-04T13:14:14.962Z,5.47
2018-03-04T13:16:45.932Z,5.61
2018-03-04T13:19:15.962Z,5.79
2018-03-04T13:21:45.897Z,5.48
2018-03-04T13:24:15.942Z,5.64
2018-03-04T13:26:46.615Z,4.60
2018-03-04T13:29:16.618Z,4.78
2018-03-04T13:31:46.588Z,4.45
2018-03-04T13:34:16.692Z,4.83
2018-03-04T13:36:47.923Z,4.83
2018-03-04T13:39:17.909Z,5.18
2018-03-04T13:41:48.814Z,5.52
2018-03-04T13:44:18.961Z,5.39
2018-03-04T13:46:48.741Z,5.49
2018-03-04T13:49:18.575Z,5.65
2018-03-04T13:51:48.510Z,5.81
2018-03-04T13:54:18.481Z,5.69
2018-03-04T13:56:48.311Z,5.71
2018-03-04T13:59:18.176Z,5.87
2018-03-04T14:01:48.103Z,6.06
2018-03-04T14:04:18.298Z,6.11
2018-03-04T14:06:48.063Z,6.29
2018-03-04T14:09:19.547Z,6.38
2018-03-04T14:11:49.445Z,6.71
2018-03-04T14:14:20.175Z,6.90
2018-03-04T14:16:50.083Z,6.98
2018-03-04T14:19:20.703Z,6.95
2018-03-04T14:21:50.628Z,6.83
2018-03-04T14:24:21.261Z,6.55
2018-03-04T14:26:51.905Z,6.69
2018-03-04T14:29:22.685Z,6.60
2018-03-04T14:31:52.477Z,6.74
2018-03-04T14:34:22.424Z,6.83
2018-03-04T14:36:52.388Z,6.65
2018-03-04T14:39:22.148Z,6.24
2018-03-04T14:41:52.117Z,6.05
2018-03-04T14:44:22.819Z,6.28
2018-03-04T14:46:52.615Z,5.56
2018-03-04T14:49:22.566Z,5.25
2018-03-04T14:51:53.245Z,5.48
2018-03-04T14:54:23.298Z,5.67
2018-03-04T14:56:53.148Z,5.62
2018-03-04T14:59:23.046Z,6.05
2018-03-04T15:01:53.653Z,6.33
2018-03-04T15:04:23.613Z,6.54
2018-03-04T15:06:53.502Z,6.49
2018-03-04T15:09:24.232Z,5.89
2018-03-04T15:11:54.957Z,5.39
2018-03-04T15:14:24.948Z,5.42
2018-03-04T15:16:55.697Z,5.18
2018-03-04T15:19:27.466Z,5.89
2018-03-04T15:21:57.363Z,5.91
2018-03-04T15:24:27.294Z,5.72
2018-03-04T15:26:58.241Z,5.79
2018-03-04T15:29:29.153Z,5.52
2018-03-04T15:31:59.043Z,5.86
2018-03-04T15:34:29.135Z,6.15
2018-03-04T15:36:59.045Z,6.47
2018-03-04T15:39:29.107Z,6.72
2018-03-04T15:41:58.958Z,6.73
2018-03-04T15:44:29.540Z,6.92
2018-03-04T15:46:59.142Z,7.08
2018-03-04T15:49:29.207Z,7.12
2018-03-04T15:52:00.159Z,7.24
2018-03-04T15:54:30.213Z,7.30
2018-03-04T15:57:00.697Z,7.27
2018-03-04T15:59:31.436Z,7.00
2018-03-04T16:02:02.137Z,6.86
2018-03-04T16:04:32.412Z,6.69
2018-03-04T16:07:02.219Z,6.53
2018-03-04T16:09:32.260Z,6.49
2018-03-04T16:12:02.135Z,6.27
2018-03-04T16:14:33.078Z,6.12
2018-03-04T16:17:03.597Z,6.07
2018-03-04T16:19:34.455Z,5.85
2018-03-04T16:22:04.471Z,5.66
2018-03-04T16:24:34.515Z,5.80
2018-03-04T16:27:05.220Z,5.69
2018-03-04T16:29:35.192Z,5.60
2018-03-04T16:32:05.038Z,5.65
2018-03-04T16:34:35.340Z,5.68
2018-03-04T16:37:06.212Z,5.67
2018-03-04T16:39:36.355Z,5.52
2018-03-04T16:42:06.324Z,5.00
2018-03-04T16:44:37.084Z,5.34
2018-03-04T16:47:07.031Z,4.96
2018-03-04T16:49:37.000Z,5.16
2018-03-04T16:52:06.837Z,5.07
2018-03-04T16:54:36.820Z,5.05
2018-03-04T16:57:06.642Z,5.13
2018-03-04T16:59:36.395Z,4.96
2018-03-04T17:02:06.496Z,4.86
2018-03-04T17:04:36.813Z,4.80
2018-03-04T17:07:06.747Z,4.54
2018-03-04T17:09:36.692Z,4.76
2018-03-04T17:12:06.032Z,4.88
2018-03-04T17:14:35.709Z,5.03
2018-03-04T17:17:05.152Z,5.16
2018-03-04T17:19:34.525Z,5.25
2018-03-04T17:22:04.784Z,5.13
2018-03-04T17:24:34.105Z,5.26
2018-03-04T17:27:03.378Z,5.33
2018-03-04T17:29:33.703Z,5.39
2018-03-04T17:32:02.983Z,5.39
2018-03-04T17:34:33.148Z,5.44
2018-03-04T17:37:02.544Z,5.17
2018-03-04T17:39:31.966Z,5.20
2018-03-04T17:42:01.333Z,4.73
2018-03-04T17:44:30.779Z,4.80
2018-03-04T17:47:00.258Z,4.76
2018-03-04T17:49:29.574Z,4.66
2018-03-04T17:51:58.862Z,4.78
2018-03-04T17:54:28.300Z,4.60
2018-03-04T17:56:58.401Z,4.45
2018-03-04T17:59:29.265Z,4.14
2018-03-04T18:01:59.907Z,4.12
2018-03-04T18:04:29.852Z,4.21
2018-03-04T18:06:59.871Z,4.43
2018-03-04T18:09:30.419Z,4.51
2018-03-04T18:12:00.388Z,4.59
2018-03-04T18:14:30.593Z,4.57
2018-03-04T18:17:01.036Z,4.26
2018-03-04T18:19:31.479Z,4.41
2018-03-04T18:22:00.743Z,4.52
2018-03-04T18:24:30.976Z,4.64
2018-03-04T18:27:01.517Z,4.70
2018-03-04T18:29:31.370Z,4.79
2018-03-04T18:32:01.254Z,4.62
2018-03-04T18:34:31.137Z,4.42
2018-03-04T18:37:01.821Z,4.09
2018-03-04T18:39:31.888Z,3.67
2018-03-04T18:42:02.521Z,3.73
2018-03-04T18:44:32.854Z,3.87
2018-03-04T18:47:03.695Z,3.77
2018-03-04T18:49:34.717Z,3.60
2018-03-04T18:52:05.227Z,3.55
2018-03-04T18:54:36.724Z,3.82
2018-03-04T18:57:07.379Z,3.85
2018-03-04T18:59:37.196Z,3.93
2018-03-04T19:02:07.222Z,3.97
2018-03-04T19:04:36.766Z,4.02
2018-03-04T19:07:07.379Z,4.20
2018-03-04T19:09:37.161Z,4.42
2018-03-04T19:12:07.964Z,4.14
2018-03-04T19:14:38.112Z,4.11
2018-03-04T19:17:08.424Z,3.97
2018-03-04T19:19:38.590Z,4.09
2018-03-04T19:22:07.864Z,4.26
2018-03-04T19:24:37.181Z,4.06
2018-03-04T19:27:06.598Z,4.22
2018-03-04T19:29:37.222Z,4.28
2018-03-04T19:32:07.639Z,4.30
2018-03-04T19:34:36.987Z,3.90
2018-03-04T19:37:08.185Z,4.11
2018-03-04T19:39:37.533Z,4.03
2018-03-04T19:42:06.878Z,4.18
2018-03-04T19:44:36.274Z,3.78
2018-03-04T19:47:05.717Z,3.82
2018-03-04T19:49:35.904Z,3.23
2018-03-04T19:52:05.462Z,3.26
2018-03-04T19:54:35.515Z,3.58
2018-03-04T19:57:05.802Z,3.66
2018-03-04T19:59:35.873Z,3.89
2018-03-04T20:02:05.745Z,4.00
2018-03-04T20:04:35.650Z,4.18
2018-03-04T20:07:06.545Z,4.26
2018-03-04T20:09:37.543Z,4.17
2018-03-04T20:12:07.458Z,4.24
2018-03-04T20:14:37.498Z,4.30
2018-03-04T20:17:07.534Z,4.26
2018-03-04T20:19:37.449Z,4.31
2018-03-04T20:22:07.598Z,4.41
2018-03-04T20:24:37.736Z,4.37
2018-03-04T20:27:07.723Z,4.43
2018-03-04T20:29:38.555Z,4.47
2018-03-04T20:32:08.756Z,4.47
2018-03-04T20:34:38.338Z,4.46
2018-03-04T20:37:07.652Z,4.29
2018-03-04T20:39:36.974Z,4.03
2018-03-04T20:42:07.198Z,4.02
2018-03-04T20:44:37.384Z,3.85
2018-03-04T20:47:06.890Z,3.87
2018-03-04T20:49:36.218Z,3.32
2018-03-04T20:52:05.556Z,3.67
2018-03-04T20:54:35.736Z,3.83
2018-03-04T20:57:05.038Z,3.97
2018-03-04T20:59:34.456Z,4.01
2018-03-04T21:02:03.766Z,4.07
2018-03-04T21:04:33.900Z,4.19
2018-03-04T21:07:04.176Z,4.06
2018-03-04T21:09:33.610Z,3.96
2018-03-04T21:12:03.730Z,3.85
2018-03-04T21:14:34.757Z,3.77
2018-03-04T21:17:04.939Z,3.62
2018-03-04T21:19:34.390Z,3.29
2018-03-04T21:22:04.619Z,3.00
2018-03-04T21:24:34.812Z,2.74
2018-03-04T21:27:04.125Z,3.15
2018-03-04T21:29:33.451Z,3.22
2018-03-04T21:32:03.533Z,3.51
2018-03-04T21:34:32.827Z,3.63
2018-03-04T21:37:02.143Z,3.81
2018-03-04T21:39:31.726Z,3.95
2018-03-04T21:42:01.014Z,3.95
2018-03-04T21:44:30.334Z,3.90
2018-03-04T21:46:59.779Z,3.51
2018-03-04T21:49:29.855Z,3.59
2018-03-04T21:51:59.204Z,3.70
2018-03-04T21:54:29.391Z,3.77
2018-03-04T21:56:59.699Z,3.65
2018-03-04T21:59:28.969Z,3.90
2018-03-04T22:01:58.236Z,4.09
2018-03-04T22:04:28.474Z,4.09
2018-03-04T22:06:57.752Z,3.97
2018-03-04T22:09:27.839Z,4.14
2018-03-04T22:11:57.046Z,4.16
2018-03-04T22:14:26.340Z,4.20
2018-03-04T22:16:55.485Z,4.19
2018-03-04T22:19:25.438Z,4.24
2018-03-04T22:21:54.684Z,4.28
2018-03-04T22:24:23.101Z,4.34
2018-03-04T22:26:51.580Z,4.38
2018-03-04T22:29:19.889Z,4.37
2018-03-04T22:31:48.142Z,4.44
2018-03-04T22:34:16.419Z,4.39
2018-03-04T22:36:44.677Z,4.29
2018-03-04T22:39:12.952Z,4.35
2018-03-04T22:41:41.211Z,4.34
2018-03-04T22:44:09.509Z,4.38
2018-03-04T22:46:37.777Z,4.35
2018-03-04T22:49:06.052Z,4.42
2018-03-04T22:51:34.339Z,4.47
2018-03-04T22:54:02.608Z,4.50
2018-03-04T22:56:30.866Z,4.55
2018-03-04T22:58:59.150Z,4.54
2018-03-04T23:01:27.400Z,4.56
2018-03-04T23:03:55.712Z,4.44
2018-03-04T23:06:24.013Z,4.56
2018-03-04T23:08:52.314Z,4.42
2018-03-04T23:11:21.333Z,4.34
2018-03-04T23:13:49.614Z,4.42
2018-03-04T23:16:17.891Z,4.48
2018-03-04T23:18:55.069Z,4.54
2018-03-04T23:21:23.353Z,4.45
2018-03-04T23:23:51.616Z,4.45
2018-03-04T23:26:19.964Z,4.41
2018-03-04T23:28:48.281Z,4.44
2018-03-04T23:31:16.548Z,4.44
2018-03-04T23:33:44.855Z,4.43
2018-03-04T23:36:13.109Z,4.45
2018-03-04T23:38:41.381Z,4.52
2018-03-04T23:41:09.636Z,4.40
2018-03-04T23:43:38.693Z,4.44
2018-03-04T23:46:06.944Z,4.43
2018-03-04T23:48:35.223Z,4.46
2018-03-04T23:51:03.492Z,3.98
2018-03-04T23:53:31.748Z,3.77
2018-03-04T23:56:00.017Z,3.98
2018-03-04T23:58:28.280Z,3.88
